createdAt,value
2019-03-30T00:02:52.152Z,27.63
2019-03-30T00:07:57.508Z,27.47
2019-03-30T00:13:02.950Z,28.60
2019-03-30T00:18:08.133Z,25.80
2019-03-30T00:23:13.569Z,24.40
2019-03-30T00:28:18.856Z,18.63
2019-03-30T00:33:23.767Z,30.10
2019-03-30T00:38:29.077Z,24.27
2019-03-30T00:43:34.328Z,33.03
2019-03-30T00:48:39.847Z,32.87
2019-03-30T00:53:45.194Z,28.10
2019-03-30T00:58:50.580Z,32.03
2019-03-30T01:03:56.435Z,35.20
2019-03-30T01:09:01.550Z,30.73
2019-03-30T01:14:07.078Z,39.80
2019-03-30T01:19:12.237Z,34.33
2019-03-30T01:24:17.529Z,38.53
2019-03-30T01:29:22.701Z,49.77
2019-03-30T01:34:28.411Z,40.23
2019-03-30T01:39:33.609Z,46.93
2019-03-30T01:44:38.922Z,42.50
2019-03-30T01:49:44.047Z,40.83
2019-03-30T01:54:49.489Z,53.47
2019-03-30T01:59:54.730Z,43.20
2019-03-30T02:05:00.637Z,43.83
2019-03-30T02:10:09.903Z,47.80
2019-03-30T02:15:16.182Z,40.80
2019-03-30T02:20:45.599Z,39.07
2019-03-30T02:25:50.857Z,38.27
2019-03-30T02:30:56.059Z,49.20
2019-03-30T02:36:01.568Z,37.83
2019-03-30T02:41:07.112Z,32.77
2019-03-30T02:46:13.116Z,32.73
2019-03-30T02:51:18.386Z,39.40
2019-03-30T02:56:23.509Z,34.63
2019-03-30T03:01:28.638Z,36.40
2019-03-30T03:06:34.021Z,39.57
2019-03-30T03:11:39.157Z,39.40
2019-03-30T03:16:44.472Z,37.90
2019-03-30T03:21:49.617Z,43.50
2019-03-30T03:26:54.806Z,40.37
2019-03-30T03:31:59.927Z,48.00
2019-03-30T03:37:04.984Z,39.77
2019-03-30T03:42:09.916Z,36.20
2019-03-30T03:47:15.083Z,34.77
2019-03-30T03:52:21.026Z,35.80
2019-03-30T03:57:45.571Z,48.13
2019-03-30T04:02:52.393Z,40.20
2019-03-30T04:07:59.273Z,41.70
2019-03-30T04:13:07.441Z,40.63
2019-03-30T04:18:13.604Z,47.50
2019-03-30T04:23:18.921Z,45.20
2019-03-30T04:28:24.033Z,45.10
2019-03-30T04:33:29.165Z,58.23
2019-03-30T04:38:34.133Z,47.40
2019-03-30T04:43:39.797Z,44.53
2019-03-30T04:48:44.915Z,47.40
2019-03-30T04:53:50.008Z,52.20
2019-03-30T04:58:55.103Z,46.57
2019-03-30T05:04:00.461Z,42.47
2019-03-30T05:09:06.876Z,42.73
2019-03-30T05:14:12.324Z,44.57
2019-03-30T05:19:17.553Z,38.80
2019-03-30T05:24:42.186Z,46.63
2019-03-30T05:29:47.533Z,36.43
2019-03-30T05:34:52.888Z,42.47
2019-03-30T05:40:17.286Z,33.37
2019-03-30T05:45:22.486Z,37.27
2019-03-30T05:50:27.782Z,39.03
2019-03-30T05:55:33.177Z,30.73
2019-03-30T06:00:39.161Z,42.43
2019-03-30T06:11:50.119Z,33.50
2019-03-30T06:17:05.080Z,30.67
2019-03-30T06:22:13.315Z,35.53
2019-03-30T06:27:19.061Z,41.37
2019-03-30T06:32:24.649Z,39.90
2019-03-30T06:37:36.040Z,33.93
2019-03-30T06:42:41.657Z,25.23
2019-03-30T06:47:47.448Z,34.80
2019-03-30T06:58:42.475Z,25.50
2019-03-30T07:04:07.189Z,21.50
2019-03-30T07:09:12.163Z,24.80
2019-03-30T07:14:17.452Z,22.93
2019-03-30T07:19:24.863Z,25.37
2019-03-30T07:24:30.218Z,21.27
2019-03-30T07:29:35.175Z,24.90
2019-03-30T07:34:41.817Z,20.27
2019-03-30T07:39:47.525Z,27.10
2019-03-30T07:44:52.881Z,19.13
2019-03-30T07:49:58.263Z,17.47
2019-03-30T07:55:03.717Z,21.97
2019-03-30T08:00:09.676Z,27.30
2019-03-30T08:05:15.397Z,23.60
2019-03-30T08:10:20.793Z,23.00
2019-03-30T08:15:26.160Z,19.37
2019-03-30T08:20:31.777Z,18.77
2019-03-30T08:25:36.692Z,21.77
2019-03-30T08:30:41.889Z,23.47
2019-03-30T08:35:46.999Z,19.43
2019-03-30T08:40:52.379Z,21.73
2019-03-30T08:45:57.397Z,20.87
2019-03-30T08:51:02.723Z,23.90
2019-03-30T08:56:07.878Z,24.57
2019-03-30T09:01:13.384Z,25.93
2019-03-30T09:06:18.734Z,23.13
2019-03-30T09:11:24.283Z,25.20
2019-03-30T09:16:29.838Z,25.03
2019-03-30T09:21:35.662Z,26.93
2019-03-30T09:26:41.347Z,26.40
2019-03-30T09:31:47.492Z,27.90
2019-03-30T09:36:53.482Z,23.10
2019-03-30T09:41:59.798Z,26.43
2019-03-30T09:47:06.756Z,25.97
2019-03-30T09:52:11.689Z,23.83
2019-03-30T09:57:17.538Z,23.20
2019-03-30T10:02:22.809Z,24.53
2019-03-30T10:07:27.767Z,37.90
2019-03-30T10:12:32.739Z,24.40
2019-03-30T10:17:38.228Z,23.80
2019-03-30T10:22:43.584Z,23.13
2019-03-30T10:27:48.865Z,25.23
2019-03-30T10:32:54.262Z,22.63
2019-03-30T10:37:59.630Z,22.67
2019-03-30T10:43:04.969Z,24.80
2019-03-30T10:48:09.990Z,23.10
2019-03-30T10:53:15.269Z,23.40
2019-03-30T10:58:20.404Z,22.83
2019-03-30T11:03:25.616Z,22.30
2019-03-30T11:08:30.606Z,28.50
2019-03-30T11:13:35.894Z,22.67
2019-03-30T11:18:41.103Z,28.33
2019-03-30T11:23:46.458Z,24.03
2019-03-30T11:28:51.727Z,23.90
2019-03-30T11:33:57.319Z,23.00
2019-03-30T11:39:02.894Z,23.33
2019-03-30T11:44:08.230Z,24.17
2019-03-30T11:49:13.574Z,23.73
2019-03-30T11:54:18.955Z,22.23
2019-03-30T11:59:23.976Z,23.30
2019-03-30T12:04:28.941Z,25.03
2019-03-30T12:09:33.963Z,23.33
2019-03-30T12:14:39.207Z,23.83
2019-03-30T12:19:44.410Z,25.13
2019-03-30T12:24:49.376Z,24.37
2019-03-30T12:29:54.447Z,24.20
2019-03-30T12:35:00.787Z,25.50
2019-03-30T12:40:07.078Z,25.00
2019-03-30T12:45:13.809Z,27.13
2019-03-30T12:50:19.247Z,24.40
2019-03-30T12:55:24.218Z,22.40
2019-03-30T13:00:29.273Z,23.77
2019-03-30T13:05:34.479Z,21.10
2019-03-30T13:10:39.892Z,19.27
2019-03-30T13:15:44.875Z,20.43
2019-03-30T13:20:49.795Z,21.17
2019-03-30T13:26:03.429Z,20.37
2019-03-30T13:31:01.483Z,21.17
2019-03-30T13:36:10.613Z,19.67
2019-03-30T13:41:15.070Z,18.60
2019-03-30T13:46:20.451Z,19.00
2019-03-30T13:51:25.682Z,20.87
2019-03-30T13:56:30.738Z,17.80
2019-03-30T14:01:36.131Z,21.37
2019-03-30T14:06:41.458Z,22.43
2019-03-30T14:11:46.822Z,25.43
2019-03-30T14:16:52.114Z,23.97
2019-03-30T14:21:57.104Z,24.17
2019-03-30T14:27:02.277Z,22.87
2019-03-30T14:32:07.870Z,25.97
2019-03-30T14:37:12.784Z,25.27
2019-03-30T14:42:18.193Z,25.20
2019-03-30T14:47:23.661Z,28.60
2019-03-30T14:52:28.906Z,24.03
2019-03-30T14:57:34.110Z,25.20
2019-03-30T15:02:39.373Z,23.00
2019-03-30T15:07:44.674Z,22.33
2019-03-30T15:12:50.000Z,23.13
2019-03-30T15:17:55.569Z,23.43
2019-03-30T15:23:00.842Z,19.00
2019-03-30T15:28:06.215Z,20.87
2019-03-30T15:33:11.505Z,17.70
2019-03-30T15:38:16.972Z,45.53
2019-03-30T15:43:22.325Z,17.17
2019-03-30T15:48:28.273Z,19.87
2019-03-30T15:53:33.941Z,20.27
2019-03-30T15:58:38.837Z,21.53
2019-03-30T16:03:43.843Z,20.57
2019-03-30T16:08:49.499Z,19.93
2019-03-30T16:13:54.928Z,22.60
2019-03-30T16:19:00.238Z,21.77
2019-03-30T16:24:05.470Z,20.40
2019-03-30T16:29:10.794Z,20.50
2019-03-30T16:34:16.186Z,24.70
2019-03-30T16:39:21.428Z,21.13
2019-03-30T16:44:26.424Z,19.73
2019-03-30T16:49:31.697Z,26.53
2019-03-30T16:54:36.863Z,52.27
2019-03-30T16:59:41.912Z,93.97
2019-03-30T17:04:47.156Z,107.43
2019-03-30T17:09:52.426Z,121.17
2019-03-30T17:14:57.479Z,127.83
2019-03-30T17:20:02.789Z,73.83
2019-03-30T17:25:08.064Z,52.83
2019-03-30T17:30:13.673Z,44.33
2019-03-30T17:35:19.735Z,94.77
2019-03-30T17:40:25.079Z,106.60
2019-03-30T17:45:30.472Z,106.63
2019-03-30T17:50:35.746Z,156.90
2019-03-30T17:55:46.636Z,167.47
2019-03-30T18:00:52.195Z,191.33
2019-03-30T18:05:57.246Z,117.07
2019-03-30T18:11:04.253Z,122.10
2019-03-30T18:16:10.063Z,118.57
2019-03-30T18:21:15.385Z,97.63
2019-03-30T18:26:20.731Z,97.57
2019-03-30T18:31:28.987Z,153.17
2019-03-30T18:36:35.802Z,131.70
2019-03-30T18:41:40.999Z,123.80
2019-03-30T18:46:46.006Z,110.97
2019-03-30T18:51:50.980Z,86.13
2019-03-30T18:56:56.407Z,64.27
2019-03-30T19:02:01.825Z,76.53
2019-03-30T19:07:07.474Z,77.60
2019-03-30T19:12:13.018Z,71.47
2019-03-30T19:17:18.769Z,86.17
2019-03-30T19:22:23.779Z,96.50
2019-03-30T19:27:29.063Z,86.17
2019-03-30T19:32:34.560Z,75.17
2019-03-30T19:37:39.898Z,75.00
2019-03-30T19:42:45.230Z,76.90
2019-03-30T19:47:50.555Z,101.40
2019-03-30T19:52:55.831Z,99.23
2019-03-30T19:58:01.088Z,112.53
2019-03-30T20:03:07.546Z,111.20
2019-03-30T20:08:12.930Z,112.00
2019-03-30T20:13:18.714Z,141.97
2019-03-30T20:18:24.328Z,134.33
2019-03-30T20:23:29.874Z,147.97
2019-03-30T20:28:35.051Z,136.77
2019-03-30T20:33:40.356Z,172.00
2019-03-30T20:38:45.421Z,181.60
2019-03-30T20:43:50.363Z,325.70
2019-03-30T20:48:55.613Z,375.13
2019-03-30T20:54:00.889Z,184.73
2019-03-30T20:59:05.905Z,164.87
2019-03-30T21:04:14.267Z,126.83
2019-03-30T21:09:19.643Z,145.47
2019-03-30T21:14:24.980Z,113.67
2019-03-30T21:19:30.251Z,102.90
2019-03-30T21:24:35.220Z,93.57
2019-03-30T21:29:53.995Z,102.20
2019-03-30T21:34:47.326Z,99.00
2019-03-30T21:40:11.965Z,86.40
2019-03-30T21:45:17.230Z,114.97
2019-03-30T21:50:22.499Z,90.27
2019-03-30T21:55:27.849Z,118.07
2019-03-30T22:00:37.910Z,100.90
2019-03-30T22:05:43.122Z,123.83
2019-03-30T22:10:48.193Z,143.53
2019-03-30T22:15:53.360Z,118.97
2019-03-30T22:21:00.008Z,160.80
2019-03-30T22:26:05.337Z,161.37
2019-03-30T22:31:10.656Z,232.17
2019-03-30T22:36:16.243Z,205.97
2019-03-30T22:41:21.603Z,186.40
2019-03-30T22:46:26.880Z,148.43
2019-03-30T22:51:32.298Z,168.90
2019-03-30T22:56:37.619Z,167.40
2019-03-30T23:01:42.986Z,120.03
2019-03-30T23:06:48.361Z,101.80
2019-03-30T23:11:53.667Z,120.70
2019-03-30T23:16:59.016Z,96.33
2019-03-30T23:22:04.143Z,117.47
2019-03-30T23:27:09.405Z,109.33
2019-03-30T23:32:14.754Z,131.77
2019-03-30T23:37:20.063Z,114.70
2019-03-30T23:42:25.469Z,140.77
2019-03-30T23:47:42.365Z,111.10
2019-03-30T23:52:47.678Z,139.10
2019-03-30T23:57:53.091Z,114.80
